createdAt,value
2022-11-25T00:02:07.497Z,21.49
2022-11-25T00:04:40.666Z,22.31
2022-11-25T00:07:11.679Z,21.64
2022-11-25T00:09:43.662Z,21.32
2022-11-25T00:12:14.464Z,20.78
2022-11-25T00:14:45.292Z,20.74
2022-11-25T00:17:16.558Z,20.09
2022-11-25T00:19:47.489Z,19.73
2022-11-25T00:22:19.192Z,21.03
2022-11-25T00:24:50.826Z,21.48
2022-11-25T00:27:21.808Z,20.47
2022-11-25T00:29:52.947Z,19.91
2022-11-25T00:32:24.351Z,19.49
2022-11-25T00:34:55.352Z,19.43
2022-11-25T00:37:26.641Z,21.00
2022-11-25T00:39:57.585Z,21.76
2022-11-25T00:42:46.292Z,22.88
2022-11-25T00:45:17.076Z,22.04
2022-11-25T00:47:48.559Z,22.14
2022-11-25T00:50:21.905Z,21.30
2022-11-25T00:52:53.082Z,20.51
2022-11-25T00:55:24.412Z,20.22
2022-11-25T00:57:55.329Z,19.64
2022-11-25T01:00:26.659Z,19.18
2022-11-25T01:02:57.420Z,19.24
2022-11-25T01:05:28.505Z,18.64
2022-11-25T01:08:00.147Z,18.63
2022-11-25T01:10:30.415Z,18.07
2022-11-25T01:13:02.981Z,19.27
2022-11-25T01:15:33.695Z,18.97
2022-11-25T01:18:04.927Z,19.31
2022-11-25T01:20:36.454Z,18.85
2022-11-25T01:23:07.375Z,18.57
2022-11-25T01:25:40.217Z,19.04
2022-11-25T01:28:11.200Z,18.65
2022-11-25T01:30:42.679Z,18.58
2022-11-25T01:33:13.427Z,18.30
2022-11-25T01:35:44.187Z,17.28
2022-11-25T01:38:14.913Z,17.20
2022-11-25T01:40:48.292Z,16.21
2022-11-25T01:43:19.206Z,15.91
2022-11-25T01:45:50.168Z,15.75
2022-11-25T01:48:28.371Z,16.05
2022-11-25T01:50:59.305Z,16.62
2022-11-25T01:53:30.121Z,16.89
2022-11-25T01:56:04.196Z,17.55
2022-11-25T01:58:38.150Z,18.45
2022-11-25T02:01:09.713Z,18.39
2022-11-25T02:03:42.503Z,17.69
2022-11-25T02:06:41.059Z,17.67
2022-11-25T02:09:12.742Z,18.05
2022-11-25T02:11:45.382Z,19.29
2022-11-25T02:14:17.351Z,19.04
2022-11-25T02:16:48.700Z,19.61
2022-11-25T02:19:46.404Z,18.37
2022-11-25T02:22:26.564Z,17.94
2022-11-25T02:25:02.741Z,17.89
2022-11-25T02:27:34.672Z,17.79
2022-11-25T02:30:06.144Z,17.63
2022-11-25T02:32:37.004Z,17.80
2022-11-25T02:35:31.008Z,17.80
2022-11-25T02:38:14.246Z,17.58
2022-11-25T02:41:25.161Z,17.16
2022-11-25T02:44:01.608Z,17.95
2022-11-25T02:46:32.911Z,18.86
2022-11-25T02:49:09.921Z,17.77
2022-11-25T02:51:46.783Z,17.59
2022-11-25T02:54:18.342Z,17.64
2022-11-25T02:56:49.095Z,18.91
2022-11-25T02:59:20.318Z,19.51
2022-11-25T03:01:51.739Z,18.85
2022-11-25T03:04:22.722Z,18.53
2022-11-25T03:06:53.662Z,18.37
2022-11-25T03:09:24.610Z,17.91
2022-11-25T03:12:15.303Z,17.90
2022-11-25T03:14:46.685Z,17.89
2022-11-25T03:17:17.495Z,17.95
2022-11-25T03:19:48.780Z,17.98
2022-11-25T03:22:19.660Z,17.92
2022-11-25T03:24:50.678Z,17.94
2022-11-25T03:27:23.553Z,18.02
2022-11-25T03:29:54.707Z,17.92
2022-11-25T03:32:25.678Z,17.72
2022-11-25T03:34:57.004Z,17.45
2022-11-25T03:37:28.122Z,17.33
2022-11-25T03:39:59.232Z,17.36
2022-11-25T03:42:30.463Z,16.85
2022-11-25T03:45:01.747Z,16.83
2022-11-25T03:47:35.139Z,17.59
2022-11-25T03:50:07.337Z,17.73
2022-11-25T03:52:38.630Z,17.47
2022-11-25T03:55:14.462Z,18.30
2022-11-25T03:57:48.407Z,18.58
2022-11-25T04:00:19.595Z,18.74
2022-11-25T04:03:03.976Z,18.42
2022-11-25T04:05:36.361Z,17.71
2022-11-25T04:08:10.490Z,18.07
2022-11-25T04:10:42.470Z,17.80
2022-11-25T04:13:14.736Z,17.52
2022-11-25T04:15:50.562Z,17.53
2022-11-25T04:18:22.471Z,17.50
2022-11-25T04:20:59.601Z,17.46
2022-11-25T04:23:30.385Z,17.52
2022-11-25T04:26:07.459Z,17.71
2022-11-25T04:28:42.515Z,18.22
2022-11-25T04:31:14.457Z,18.76
2022-11-25T04:33:52.235Z,18.62
2022-11-25T04:36:26.460Z,19.02
2022-11-25T04:38:57.589Z,18.23
2022-11-25T04:41:28.857Z,18.40
2022-11-25T04:44:02.308Z,18.73
2022-11-25T04:46:39.617Z,18.73
2022-11-25T04:49:11.721Z,18.72
2022-11-25T04:51:43.098Z,19.10
2022-11-25T04:54:17.443Z,19.27
2022-11-25T04:56:49.464Z,18.79
2022-11-25T04:59:40.111Z,18.74
2022-11-25T05:02:21.202Z,19.39
2022-11-25T05:05:07.592Z,18.88
2022-11-25T05:07:40.234Z,18.61
2022-11-25T05:10:11.706Z,18.35
2022-11-25T05:12:47.882Z,17.77
2022-11-25T05:15:21.637Z,17.86
2022-11-25T05:17:52.698Z,18.03
2022-11-25T05:20:38.172Z,17.87
2022-11-25T05:23:08.914Z,17.73
2022-11-25T05:25:40.472Z,17.71
2022-11-25T05:28:29.634Z,18.04
2022-11-25T05:31:01.469Z,18.30
2022-11-25T05:33:34.078Z,18.39
2022-11-25T05:36:07.619Z,18.14
2022-11-25T05:38:47.811Z,17.98
2022-11-25T05:41:26.770Z,18.52
2022-11-25T05:43:58.646Z,18.28
2022-11-25T05:46:30.105Z,18.36
2022-11-25T05:49:02.112Z,18.60
2022-11-25T05:51:33.475Z,18.08
2022-11-25T05:54:07.536Z,18.06
2022-11-25T05:56:41.002Z,17.55
2022-11-25T05:59:34.610Z,17.13
2022-11-25T06:02:13.976Z,17.20
2022-11-25T06:04:45.144Z,17.07
2022-11-25T06:07:16.331Z,17.00
2022-11-25T06:09:47.467Z,17.04
2022-11-25T06:12:18.800Z,16.81
2022-11-25T06:14:53.503Z,16.82
2022-11-25T06:17:25.684Z,16.83
2022-11-25T06:20:11.039Z,16.88
2022-11-25T06:22:41.882Z,17.08
2022-11-25T06:25:13.643Z,16.83
2022-11-25T06:28:11.190Z,16.66
2022-11-25T06:30:36.807Z,16.49
2022-11-25T06:33:20.621Z,16.44
2022-11-25T06:35:53.247Z,16.41
2022-11-25T06:38:24.024Z,16.39
2022-11-25T06:40:59.168Z,16.31
2022-11-25T06:43:31.427Z,16.14
2022-11-25T06:46:10.231Z,16.16
2022-11-25T06:48:41.359Z,16.17
2022-11-25T06:51:16.131Z,16.15
2022-11-25T06:53:47.346Z,16.08
2022-11-25T06:56:22.032Z,15.96
2022-11-25T06:58:53.546Z,15.95
2022-11-25T07:01:25.325Z,15.94
2022-11-25T07:03:58.617Z,15.78
2022-11-25T07:06:30.100Z,15.90
2022-11-25T07:09:01.007Z,15.80
2022-11-25T07:11:34.736Z,15.96
2022-11-25T07:14:11.708Z,15.89
2022-11-25T07:16:44.940Z,15.75
2022-11-25T07:19:18.646Z,15.57
2022-11-25T07:21:51.360Z,15.64
2022-11-25T07:24:22.385Z,15.55
2022-11-25T07:26:53.534Z,15.56
2022-11-25T07:29:50.347Z,15.53
2022-11-25T07:32:15.719Z,15.39
2022-11-25T07:34:46.746Z,15.23
2022-11-25T07:37:19.345Z,15.35
2022-11-25T07:39:50.315Z,15.30
2022-11-25T07:42:21.503Z,15.40
2022-11-25T07:44:52.211Z,15.17
2022-11-25T07:47:48.851Z,15.06
2022-11-25T07:50:19.671Z,14.92
2022-11-25T07:52:50.406Z,14.96
2022-11-25T07:55:21.301Z,14.97
2022-11-25T07:57:52.547Z,14.92
2022-11-25T08:00:24.344Z,14.91
2022-11-25T08:02:54.843Z,14.90
2022-11-25T08:05:25.876Z,14.97
2022-11-25T08:07:57.138Z,14.89
2022-11-25T08:10:28.110Z,14.83
2022-11-25T08:12:59.202Z,14.73
2022-11-25T08:15:30.247Z,14.73
2022-11-25T08:18:01.146Z,14.66
2022-11-25T08:20:32.933Z,14.67
2022-11-25T08:23:04.123Z,14.75
2022-11-25T08:25:35.207Z,14.57
2022-11-25T08:28:06.126Z,14.62
2022-11-25T08:30:38.032Z,14.58
2022-11-25T08:33:09.392Z,14.62
2022-11-25T08:35:40.697Z,14.61
2022-11-25T08:38:14.019Z,14.64
2022-11-25T08:40:48.491Z,14.78
2022-11-25T08:43:24.992Z,14.84
2022-11-25T08:46:01.660Z,14.46
2022-11-25T08:48:32.387Z,14.40
2022-11-25T08:51:03.259Z,14.62
2022-11-25T08:53:34.156Z,14.50
2022-11-25T08:56:05.557Z,14.47
2022-11-25T08:58:37.483Z,14.55
2022-11-25T09:01:09.629Z,14.58
2022-11-25T09:03:41.057Z,14.80
2022-11-25T09:06:12.777Z,14.75
2022-11-25T09:08:44.132Z,14.50
2022-11-25T09:11:16.064Z,14.30
2022-11-25T09:13:47.400Z,14.47
2022-11-25T09:16:18.324Z,14.74
2022-11-25T09:18:55.310Z,14.54
2022-11-25T09:21:26.793Z,14.36
2022-11-25T09:23:58.090Z,14.27
2022-11-25T09:26:32.592Z,14.45
2022-11-25T09:29:05.103Z,14.45
2022-11-25T09:31:36.219Z,14.42
2022-11-25T09:34:08.741Z,14.28
2022-11-25T09:36:40.004Z,14.34
2022-11-25T09:39:11.870Z,14.09
2022-11-25T09:42:33.368Z,14.00
2022-11-25T09:45:22.425Z,13.95
2022-11-25T09:47:57.540Z,13.92
2022-11-25T09:50:35.914Z,14.19
2022-11-25T09:53:18.936Z,14.12
2022-11-25T09:55:55.928Z,14.35
2022-11-25T09:58:46.927Z,14.38
2022-11-25T10:01:25.095Z,14.30
2022-11-25T10:04:05.419Z,14.25
2022-11-25T10:06:40.483Z,14.32
2022-11-25T10:09:17.734Z,14.00
2022-11-25T10:11:53.555Z,14.01
2022-11-25T10:14:57.897Z,14.14
2022-11-25T10:17:38.492Z,14.06
2022-11-25T10:20:17.341Z,13.98
2022-11-25T10:22:50.698Z,13.70
2022-11-25T10:25:27.883Z,13.54
2022-11-25T10:28:13.010Z,13.64
2022-11-25T10:30:53.625Z,13.67
2022-11-25T10:33:52.605Z,13.91
2022-11-25T10:36:49.934Z,13.99
2022-11-25T10:39:33.220Z,13.88
2022-11-25T10:42:16.497Z,13.66
2022-11-25T10:44:47.440Z,13.81
2022-11-25T10:47:33.592Z,13.96
2022-11-25T10:50:36.257Z,14.28
2022-11-25T10:53:15.725Z,14.35
2022-11-25T10:56:01.999Z,14.49
2022-11-25T10:58:39.537Z,14.56
2022-11-25T11:01:24.474Z,14.44
2022-11-25T11:04:07.885Z,14.53
2022-11-25T11:06:41.327Z,14.52
2022-11-25T11:09:38.051Z,14.55
2022-11-25T11:12:24.028Z,14.61
2022-11-25T11:14:56.721Z,14.52
2022-11-25T11:17:37.814Z,14.58
2022-11-25T11:20:15.691Z,14.65
2022-11-25T11:22:54.174Z,14.50
2022-11-25T11:25:28.984Z,14.36
2022-11-25T11:28:01.429Z,14.23
2022-11-25T11:30:34.729Z,14.17
2022-11-25T11:33:09.389Z,14.14
2022-11-25T11:35:56.381Z,14.20
2022-11-25T11:38:27.217Z,14.12
2022-11-25T11:41:07.806Z,14.08
2022-11-25T11:44:00.040Z,14.14
2022-11-25T11:46:55.188Z,14.22
2022-11-25T11:49:52.190Z,14.23
2022-11-25T11:52:35.063Z,14.29
2022-11-25T11:55:29.099Z,14.17
2022-11-25T11:58:44.404Z,14.21
2022-11-25T12:01:39.419Z,14.05
2022-11-25T12:04:41.996Z,14.23
2022-11-25T12:07:47.956Z,14.16
2022-11-25T12:10:43.223Z,14.15
2022-11-25T12:13:40.563Z,14.12
2022-11-25T12:16:20.027Z,14.16
2022-11-25T12:19:16.355Z,14.20
2022-11-25T12:22:08.596Z,14.24
2022-11-25T12:25:08.383Z,14.06
2022-11-25T12:28:19.861Z,14.22
2022-11-25T12:31:29.187Z,14.18
2022-11-25T12:34:08.239Z,14.09
2022-11-25T12:36:43.426Z,14.18
2022-11-25T12:39:27.902Z,14.12
2022-11-25T12:42:11.159Z,14.17
2022-11-25T12:45:09.414Z,14.27
2022-11-25T12:47:40.348Z,14.33
2022-11-25T12:50:23.518Z,14.30
2022-11-25T12:53:10.494Z,14.21
2022-11-25T12:55:42.248Z,14.36
2022-11-25T12:58:37.854Z,14.33
2022-11-25T13:01:27.753Z,14.22
2022-11-25T13:04:20.302Z,14.20
2022-11-25T13:07:09.592Z,14.28
2022-11-25T13:10:01.974Z,14.32
2022-11-25T13:12:54.695Z,14.30
2022-11-25T13:15:47.617Z,14.33
2022-11-25T13:18:24.384Z,14.28
2022-11-25T13:20:59.286Z,14.22
2022-11-25T13:23:31.973Z,14.15
2022-11-25T13:26:30.714Z,14.16
2022-11-25T13:29:03.252Z,13.86
2022-11-25T13:31:59.398Z,13.84
2022-11-25T13:34:37.828Z,13.72
2022-11-25T13:37:38.281Z,13.87
2022-11-25T13:40:31.790Z,13.62
2022-11-25T13:43:03.310Z,13.54
2022-11-25T13:45:41.065Z,13.38
2022-11-25T13:48:22.598Z,13.34
2022-11-25T13:51:10.812Z,13.35
2022-11-25T13:53:43.134Z,13.32
2022-11-25T13:56:30.683Z,13.52
2022-11-25T13:59:13.871Z,13.44
2022-11-25T14:02:36.767Z,13.42
2022-11-25T14:05:14.270Z,13.45
2022-11-25T14:08:12.806Z,13.51
2022-11-25T14:11:20.073Z,13.62
2022-11-25T14:13:50.964Z,13.60
2022-11-25T14:16:43.775Z,13.61
2022-11-25T14:19:53.145Z,13.62
2022-11-25T14:22:46.615Z,13.63
2022-11-25T14:25:31.687Z,13.61
2022-11-25T14:28:32.027Z,13.66
2022-11-25T14:31:07.474Z,13.72
2022-11-25T14:33:54.063Z,13.74
2022-11-25T14:36:32.417Z,13.70
2022-11-25T14:39:09.222Z,13.79
2022-11-25T14:41:46.452Z,13.71
2022-11-25T14:44:23.297Z,13.71
2022-11-25T14:46:59.703Z,13.59
2022-11-25T14:50:05.366Z,13.59
2022-11-25T14:52:39.410Z,13.60
2022-11-25T14:55:11.263Z,13.71
2022-11-25T14:57:46.755Z,13.53
2022-11-25T15:00:20.105Z,13.64
2022-11-25T15:03:04.673Z,13.63
2022-11-25T15:05:41.037Z,13.68
2022-11-25T15:08:13.118Z,13.71
2022-11-25T15:10:53.386Z,13.74
2022-11-25T15:13:44.370Z,13.67
2022-11-25T15:16:18.225Z,13.67
2022-11-25T15:18:54.980Z,13.62
2022-11-25T15:21:34.141Z,13.64
2022-11-25T15:24:06.592Z,13.56
2022-11-25T15:26:39.071Z,13.64
2022-11-25T15:29:15.214Z,13.57
2022-11-25T15:31:48.812Z,13.59
2022-11-25T15:34:22.798Z,13.62
2022-11-25T15:36:54.687Z,13.64
2022-11-25T15:39:29.561Z,13.72
2022-11-25T15:42:24.740Z,13.63
2022-11-25T15:44:56.065Z,13.57
2022-11-25T15:47:31.712Z,13.60
2022-11-25T15:50:04.761Z,13.51
2022-11-25T15:52:38.267Z,13.51
2022-11-25T15:55:35.089Z,13.19
2022-11-25T15:58:16.845Z,13.13
2022-11-25T16:01:03.332Z,13.00
2022-11-25T16:03:36.742Z,13.03
2022-11-25T16:06:21.149Z,12.84
2022-11-25T16:09:02.855Z,13.11
2022-11-25T16:11:46.936Z,13.05
2022-11-25T16:14:39.081Z,12.90
2022-11-25T16:17:14.186Z,13.01
2022-11-25T16:19:47.538Z,12.75
2022-11-25T16:22:20.394Z,12.36
2022-11-25T16:25:02.205Z,12.32
2022-11-25T16:27:34.020Z,12.20
2022-11-25T16:30:08.186Z,12.21
2022-11-25T16:32:39.742Z,12.13
2022-11-25T16:35:23.743Z,12.01
2022-11-25T16:38:00.019Z,12.12
2022-11-25T16:40:31.175Z,12.03
2022-11-25T16:43:03.177Z,12.20
2022-11-25T16:45:34.496Z,12.19
2022-11-25T16:48:10.815Z,12.22
2022-11-25T16:50:42.069Z,12.11
2022-11-25T16:53:13.286Z,12.03
2022-11-25T16:55:47.259Z,12.01
2022-11-25T16:58:21.914Z,11.90
2022-11-25T17:00:56.111Z,12.01
2022-11-25T17:03:28.112Z,11.83
2022-11-25T17:05:59.493Z,11.95
2022-11-25T17:08:30.487Z,11.95
2022-11-25T17:11:01.831Z,11.91
2022-11-25T17:13:32.589Z,11.84
2022-11-25T17:16:03.478Z,11.66
2022-11-25T17:18:34.497Z,11.87
2022-11-25T17:21:05.373Z,11.82
2022-11-25T17:23:36.638Z,11.83
2022-11-25T17:26:07.907Z,11.85
2022-11-25T17:28:38.910Z,11.94
2022-11-25T17:31:11.965Z,12.03
2022-11-25T17:33:47.494Z,12.11
2022-11-25T17:36:18.663Z,12.21
2022-11-25T17:38:49.878Z,12.33
2022-11-25T17:41:25.690Z,12.41
2022-11-25T17:43:57.885Z,12.49
2022-11-25T17:46:31.011Z,12.64
2022-11-25T17:49:01.960Z,12.80
2022-11-25T17:51:32.934Z,12.98
2022-11-25T17:54:03.904Z,13.18
2022-11-25T17:56:35.239Z,13.32
2022-11-25T17:59:11.850Z,13.55
2022-11-25T18:01:42.971Z,13.54
2022-11-25T18:04:43.827Z,13.65
2022-11-25T18:07:14.805Z,13.95
2022-11-25T18:09:46.501Z,13.99
2022-11-25T18:12:37.867Z,14.23
2022-11-25T18:15:09.833Z,14.41
2022-11-25T18:17:41.110Z,14.47
2022-11-25T18:20:23.825Z,14.70
2022-11-25T18:22:55.558Z,14.84
2022-11-25T18:25:30.127Z,15.06
2022-11-25T18:28:01.921Z,15.08
2022-11-25T18:30:35.507Z,15.12
2022-11-25T18:33:08.110Z,15.26
2022-11-25T18:35:38.917Z,15.44
2022-11-25T18:38:10.357Z,15.78
2022-11-25T18:40:45.570Z,15.94
2022-11-25T18:43:24.965Z,16.04
2022-11-25T18:45:57.184Z,16.16
2022-11-25T18:48:29.056Z,16.41
2022-11-25T18:50:59.936Z,16.32
2022-11-25T18:53:31.136Z,16.15
2022-11-25T18:56:02.617Z,16.51
2022-11-25T18:58:34.533Z,16.81
2022-11-25T19:01:06.122Z,17.00
2022-11-25T19:03:37.223Z,17.29
2022-11-25T19:06:08.648Z,17.40
2022-11-25T19:08:39.642Z,17.46
2022-11-25T19:11:20.382Z,17.45
2022-11-25T19:13:54.854Z,17.52
2022-11-25T19:16:26.085Z,17.74
2022-11-25T19:18:57.407Z,17.81
2022-11-25T19:21:28.368Z,18.29
2022-11-25T19:23:59.528Z,18.38
2022-11-25T19:26:32.381Z,18.66
2022-11-25T19:29:13.097Z,18.72
2022-11-25T19:31:43.852Z,18.58
2022-11-25T19:34:38.330Z,19.04
2022-11-25T19:37:17.225Z,18.98
2022-11-25T19:39:49.645Z,18.97
2022-11-25T19:42:21.093Z,19.35
2022-11-25T19:44:52.162Z,19.56
2022-11-25T19:47:28.237Z,19.70
2022-11-25T19:50:02.336Z,19.49
2022-11-25T19:52:39.530Z,19.63
2022-11-25T19:55:16.480Z,19.72
2022-11-25T19:57:47.875Z,19.73
2022-11-25T20:00:20.456Z,19.86
2022-11-25T20:02:56.336Z,20.69
2022-11-25T20:05:35.339Z,19.88
2022-11-25T20:08:06.702Z,19.91
2022-11-25T20:10:37.526Z,20.29
2022-11-25T20:13:10.314Z,20.18
2022-11-25T20:15:42.381Z,19.50
2022-11-25T20:18:21.727Z,20.92
2022-11-25T20:20:58.694Z,21.15
2022-11-25T20:23:48.502Z,20.95
2022-11-25T20:26:41.686Z,20.96
2022-11-25T20:29:27.508Z,20.79
2022-11-25T20:32:01.313Z,20.98
2022-11-25T20:34:36.159Z,21.42
2022-11-25T20:37:11.085Z,21.71
2022-11-25T20:39:42.336Z,21.09
2022-11-25T20:42:14.606Z,20.98
2022-11-25T20:44:45.755Z,21.46
2022-11-25T20:47:20.079Z,21.36
2022-11-25T20:49:50.873Z,21.88
2022-11-25T20:52:35.203Z,21.72
2022-11-25T20:55:25.873Z,21.63
2022-11-25T20:57:57.037Z,21.97
2022-11-25T21:00:29.931Z,21.73
2022-11-25T21:03:01.297Z,21.39
2022-11-25T21:05:32.006Z,20.82
2022-11-25T21:08:03.281Z,21.29
2022-11-25T21:10:37.479Z,21.81
2022-11-25T21:13:15.682Z,21.68
2022-11-25T21:15:46.907Z,22.49
2022-11-25T21:18:18.527Z,21.80
2022-11-25T21:20:50.109Z,22.10
2022-11-25T21:23:28.942Z,22.17
2022-11-25T21:26:08.035Z,23.06
2022-11-25T21:28:42.406Z,22.31
2022-11-25T21:31:25.144Z,22.79
2022-11-25T21:34:00.248Z,24.09
2022-11-25T21:36:32.667Z,22.55
2022-11-25T21:39:17.937Z,22.36
2022-11-25T21:41:48.921Z,21.95
2022-11-25T21:44:28.690Z,21.72
2022-11-25T21:46:59.872Z,22.04
2022-11-25T21:49:31.230Z,22.31
2022-11-25T21:52:02.287Z,22.24
2022-11-25T21:54:33.544Z,22.04
2022-11-25T21:57:04.354Z,22.06
2022-11-25T21:59:35.272Z,22.54
2022-11-25T22:02:20.033Z,23.04
2022-11-25T22:04:51.123Z,23.70
2022-11-25T22:07:25.116Z,22.99
2022-11-25T22:09:58.867Z,23.36
2022-11-25T22:12:34.380Z,23.67
2022-11-25T22:15:12.519Z,24.73
2022-11-25T22:17:44.129Z,24.52
2022-11-25T22:20:34.936Z,24.38
2022-11-25T22:23:18.392Z,24.10
2022-11-25T22:25:50.325Z,23.03
2022-11-25T22:28:25.196Z,23.16
2022-11-25T22:30:58.458Z,23.81
2022-11-25T22:33:34.337Z,23.68
2022-11-25T22:36:05.917Z,24.18
2022-11-25T22:38:36.046Z,23.39
2022-11-25T22:41:12.539Z,23.32
2022-11-25T22:43:47.747Z,22.74
2022-11-25T22:46:18.778Z,22.90
2022-11-25T22:48:49.880Z,23.17
2022-11-25T22:51:26.105Z,23.15
2022-11-25T22:53:56.875Z,23.10
2022-11-25T22:56:29.506Z,23.55
2022-11-25T22:59:01.801Z,24.59
2022-11-25T23:01:32.869Z,24.61
2022-11-25T23:04:04.566Z,23.61
2022-11-25T23:06:35.767Z,23.47
2022-11-25T23:09:07.949Z,22.38
2022-11-25T23:11:40.113Z,22.71
2022-11-25T23:14:11.285Z,22.26
2022-11-25T23:16:44.229Z,22.45
2022-11-25T23:19:18.786Z,22.09
2022-11-25T23:21:50.050Z,22.74
2022-11-25T23:24:21.093Z,22.33
2022-11-25T23:26:51.820Z,22.85
2022-11-25T23:29:22.589Z,22.54
2022-11-25T23:31:53.592Z,22.44
2022-11-25T23:34:24.556Z,22.51
2022-11-25T23:36:55.739Z,22.77
2022-11-25T23:39:28.159Z,23.04
2022-11-25T23:41:59.386Z,22.41
2022-11-25T23:44:33.062Z,22.15
2022-11-25T23:47:06.358Z,22.55
2022-11-25T23:49:41.106Z,22.24
2022-11-25T23:52:16.060Z,22.55
2022-11-25T23:54:49.519Z,22.26
2022-11-25T23:57:32.286Z,22.17
